createdAt,value
2023-03-04T00:01:50.759Z,100360.94
2023-03-04T00:04:55.883Z,100366.94
2023-03-04T00:08:07.406Z,100375.94
2023-03-04T00:11:14.176Z,100374.91
2023-03-04T00:14:53.955Z,100370.00
2023-03-04T00:18:01.979Z,100374.19
2023-03-04T00:21:13.305Z,100368.97
2023-03-04T00:24:18.828Z,100358.16
2023-03-04T00:27:22.354Z,100352.13
2023-03-04T00:30:26.056Z,100353.97
2023-03-04T00:33:51.362Z,100351.19
2023-03-04T00:37:14.952Z,100350.84
2023-03-04T00:40:34.501Z,100349.66
2023-03-04T00:43:40.608Z,100353.31
2023-03-04T00:46:43.727Z,100356.53
2023-03-04T00:49:47.008Z,100354.91
2023-03-04T00:52:50.352Z,100360.56
2023-03-04T00:56:15.784Z,100345.66
2023-03-04T00:59:22.156Z,100336.41
2023-03-04T01:02:26.833Z,100339.31
2023-03-04T01:05:29.930Z,100336.38
2023-03-04T01:08:57.899Z,100332.81
2023-03-04T01:12:03.740Z,100328.53
2023-03-04T01:15:09.149Z,100324.87
2023-03-04T01:18:33.602Z,100338.47
2023-03-04T01:21:40.686Z,100333.22
2023-03-04T01:24:44.232Z,100330.75
2023-03-04T01:27:47.726Z,100331.28
2023-03-04T01:30:50.615Z,100324.63
2023-03-04T01:34:14.820Z,100313.78
2023-03-04T01:37:37.869Z,100318.69
2023-03-04T01:40:42.976Z,100311.03
2023-03-04T01:44:06.358Z,100308.91
2023-03-04T01:47:10.733Z,100311.53
2023-03-04T01:50:31.146Z,100304.72
2023-03-04T01:53:35.436Z,100304.19
2023-03-04T01:56:45.949Z,100310.22
2023-03-04T02:00:32.667Z,100308.09
2023-03-04T02:03:37.341Z,100297.25
2023-03-04T02:07:02.217Z,100304.53
2023-03-04T02:10:06.316Z,100301.66
2023-03-04T02:13:13.024Z,100295.63
2023-03-04T02:16:15.831Z,100290.84
2023-03-04T02:19:28.447Z,100290.84
2023-03-04T02:22:36.861Z,100293.31
2023-03-04T02:26:15.287Z,100279.75
2023-03-04T02:29:19.563Z,100279.81
2023-03-04T02:32:24.728Z,100283.81
2023-03-04T02:35:27.965Z,100269.25
2023-03-04T02:38:53.478Z,100277.91
2023-03-04T02:41:57.419Z,100269.22
2023-03-04T02:45:02.903Z,100275.69
2023-03-04T02:48:08.672Z,100271.16
2023-03-04T02:51:31.598Z,100270.16
2023-03-04T02:54:34.610Z,100262.06
2023-03-04T02:57:40.121Z,100263.69
2023-03-04T03:01:03.030Z,100260.56
2023-03-04T03:04:06.947Z,100249.31
2023-03-04T03:07:29.867Z,100248.78
2023-03-04T03:10:35.038Z,100242.56
2023-03-04T03:13:52.151Z,100246.69
2023-03-04T03:17:19.045Z,100249.25
2023-03-04T03:20:24.034Z,100249.03
2023-03-04T03:23:32.087Z,100246.00
2023-03-04T03:26:54.740Z,100248.78
2023-03-04T03:30:18.665Z,100240.16
2023-03-04T03:33:24.344Z,100240.19
2023-03-04T03:36:33.637Z,100237.56
2023-03-04T03:39:38.915Z,100238.03
2023-03-04T03:43:03.062Z,100239.47
2023-03-04T03:46:25.733Z,100225.38
2023-03-04T03:49:30.997Z,100235.22
2023-03-04T03:52:51.057Z,100226.69
2023-03-04T03:56:02.967Z,100230.00
2023-03-04T03:59:07.038Z,100237.16
2023-03-04T04:02:11.552Z,100227.47
2023-03-04T04:05:15.542Z,100233.31
2023-03-04T04:08:19.136Z,100227.84
2023-03-04T04:11:23.487Z,100216.59
2023-03-04T04:14:47.840Z,100217.41
2023-03-04T07:37:35.122Z,100261.34
2023-03-04T07:40:40.747Z,100269.53
2023-03-04T07:43:44.697Z,100262.50
2023-03-04T07:46:47.974Z,100270.28
2023-03-04T07:49:50.748Z,100265.78
2023-03-04T07:52:54.423Z,100267.19
2023-03-04T07:55:57.281Z,100270.25
2023-03-04T07:59:01.561Z,100273.63
2023-03-04T08:02:04.885Z,100281.78
2023-03-04T08:05:08.598Z,100262.47
2023-03-04T08:08:11.372Z,100266.81
2023-03-04T08:11:19.830Z,100278.22
2023-03-04T08:14:22.664Z,100267.34
2023-03-04T08:17:25.836Z,100270.03
2023-03-04T08:20:38.049Z,100269.97
2023-03-04T08:24:08.130Z,100262.62
2023-03-04T08:27:11.301Z,100258.31
2023-03-04T08:30:14.669Z,100267.53
2023-03-04T08:33:17.450Z,100267.78
2023-03-04T08:36:21.392Z,100262.34
2023-03-04T08:39:24.125Z,100267.31
2023-03-04T08:42:27.201Z,100264.37
2023-03-04T08:45:29.870Z,100265.47
2023-03-04T08:48:33.454Z,100263.41
2023-03-04T08:51:56.056Z,100255.44
2023-03-04T08:54:59.626Z,100261.50
2023-03-04T08:58:02.620Z,100256.09
2023-03-04T09:01:08.938Z,100252.03
2023-03-04T09:04:34.676Z,100248.28
2023-03-04T09:08:20.768Z,100255.00
2023-03-04T09:11:34.410Z,100248.75
2023-03-04T09:14:37.744Z,100245.62
2023-03-04T09:17:40.951Z,100247.84
2023-03-04T09:20:45.210Z,100245.25
2023-03-04T09:23:48.225Z,100236.50
2023-03-04T09:27:09.499Z,100240.41
2023-03-04T09:30:13.322Z,100239.69
2023-03-04T09:33:16.495Z,100233.63
2023-03-04T09:36:19.760Z,100237.44
2023-03-04T09:39:23.091Z,100229.50
2023-03-04T09:42:46.410Z,100227.31
2023-03-04T09:46:04.221Z,100227.37
2023-03-04T09:49:13.973Z,100231.81
2023-03-04T09:53:02.546Z,100227.37
2023-03-04T09:56:06.418Z,100218.78
2023-03-04T09:59:22.140Z,100219.19
2023-03-04T10:02:53.887Z,100216.50
2023-03-04T10:06:02.517Z,100207.50
2023-03-04T10:09:25.422Z,100211.31
2023-03-04T10:12:31.936Z,100208.66
2023-03-04T10:15:48.292Z,100208.38
2023-03-04T10:19:11.652Z,100204.81
2023-03-04T10:22:41.384Z,100197.34
2023-03-04T10:25:46.935Z,100198.44
2023-03-04T10:28:50.554Z,100197.41
2023-03-04T10:31:56.138Z,100189.09
2023-03-04T10:34:59.078Z,100183.00
2023-03-04T10:38:04.136Z,100191.16
2023-03-04T10:41:16.538Z,100178.41
2023-03-04T10:44:19.701Z,100177.81
2023-03-04T10:47:28.404Z,100177.34
2023-03-04T10:50:34.931Z,100168.00
2023-03-04T10:53:41.230Z,100163.94
2023-03-04T10:57:01.496Z,100158.91
2023-03-04T11:00:16.066Z,100146.63
2023-03-04T11:03:30.959Z,100143.81
2023-03-04T11:06:40.752Z,100144.38
2023-03-04T11:09:45.720Z,100137.28
2023-03-04T11:12:56.894Z,100129.50
2023-03-04T11:16:06.166Z,100126.78
2023-03-04T11:19:16.755Z,100110.81
2023-03-04T11:22:23.427Z,100102.06
2023-03-04T11:25:34.198Z,100098.09
2023-03-04T11:28:54.172Z,100099.47
2023-03-04T12:17:00.972Z,100045.16
2023-03-04T12:20:35.428Z,100041.44
2023-03-04T12:24:02.938Z,100039.97
2023-03-04T13:16:24.254Z,99970.91
2023-03-04T13:20:20.254Z,99970.72
2023-03-04T13:23:29.379Z,99965.72
2023-03-04T13:26:40.517Z,99968.34
2023-03-04T13:29:48.340Z,99957.88
2023-03-04T13:32:51.530Z,99955.41
2023-03-04T13:36:04.306Z,99954.00
2023-03-04T13:39:34.731Z,99942.44
2023-03-04T13:42:41.199Z,99946.00
2023-03-04T13:45:44.723Z,99929.53
2023-03-04T13:48:50.385Z,99933.75
2023-03-04T13:51:53.638Z,99924.59
2023-03-04T13:55:34.317Z,99920.69
2023-03-04T13:58:39.225Z,99919.22
2023-03-04T14:01:50.648Z,99915.69
2023-03-04T14:04:54.883Z,99913.09
2023-03-04T14:08:18.088Z,99904.31
2023-03-04T14:11:41.763Z,99907.19
2023-03-04T14:14:55.303Z,99909.13
2023-03-04T14:18:18.399Z,99903.69
2023-03-04T14:21:21.415Z,99899.41
2023-03-04T14:24:25.827Z,99887.09
2023-03-04T14:27:30.452Z,99885.59
2023-03-04T14:30:42.679Z,99893.53
2023-03-04T14:33:54.400Z,99895.00
2023-03-04T14:36:58.964Z,99887.59
2023-03-04T14:40:04.949Z,99883.22
2023-03-04T14:43:29.794Z,99889.78
2023-03-04T14:47:07.936Z,99881.88
2023-03-04T14:50:15.724Z,99876.03
2023-03-04T14:53:20.978Z,99877.03
2023-03-04T14:56:29.068Z,99866.63
2023-03-04T14:59:36.026Z,99867.62
2023-03-04T15:02:44.138Z,99865.28
2023-03-04T15:06:07.351Z,99866.81
2023-03-04T15:09:22.171Z,99864.97
2023-03-04T15:12:31.867Z,99872.37
2023-03-04T15:15:42.959Z,99858.72
2023-03-04T15:18:56.142Z,99859.28
2023-03-04T15:22:07.087Z,99859.81
2023-03-04T15:25:15.299Z,99853.12
2023-03-04T15:28:20.205Z,99856.56
2023-03-04T15:31:25.894Z,99858.81
2023-03-04T15:34:29.074Z,99857.19
2023-03-04T15:37:31.823Z,99853.56
2023-03-04T15:40:43.993Z,99860.88
2023-03-04T15:43:46.825Z,99854.13
2023-03-04T15:46:49.971Z,99848.25
2023-03-04T15:49:56.939Z,99852.91
2023-03-04T15:53:03.094Z,99852.09
2023-03-04T15:56:12.802Z,99841.09
2023-03-04T15:59:17.479Z,99838.19
2023-03-04T16:02:40.048Z,99839.97
2023-03-04T16:05:49.829Z,99841.06
2023-03-04T16:09:15.421Z,99843.16
2023-03-04T16:12:29.740Z,99844.78
2023-03-04T16:26:53.242Z,99850.09
2023-03-04T16:29:56.417Z,99847.28
2023-03-04T16:33:03.752Z,99863.78
2023-03-04T16:36:20.404Z,99867.94
2023-03-04T16:39:26.006Z,99877.03
2023-03-04T16:42:34.068Z,99885.59
2023-03-04T16:45:37.954Z,99896.25
2023-03-04T16:48:47.911Z,99884.63
2023-03-04T16:51:51.330Z,99882.78
2023-03-04T16:54:59.284Z,99893.41
2023-03-04T16:58:12.562Z,99903.44
2023-03-04T17:01:19.248Z,99896.28
2023-03-04T17:04:31.596Z,99905.81
2023-03-04T17:07:36.469Z,99912.59
2023-03-04T17:10:40.023Z,99910.47
2023-03-04T17:14:21.671Z,99913.44
2023-03-04T17:17:25.731Z,99909.31
2023-03-04T17:20:45.881Z,99901.34
2023-03-04T17:24:11.321Z,99912.97
2023-03-04T17:27:16.599Z,99911.38
2023-03-04T17:30:19.955Z,99921.41
2023-03-04T17:33:33.262Z,99924.00
2023-03-04T17:36:37.149Z,99911.22
2023-03-04T17:41:06.498Z,99913.62
2023-03-04T17:48:25.443Z,99916.97
2023-03-04T17:52:28.495Z,99916.19
2023-03-04T17:55:56.067Z,99908.69
2023-03-04T17:59:02.174Z,99918.38
2023-03-04T18:02:28.487Z,99912.31
2023-03-04T18:06:31.475Z,99912.13
2023-03-04T18:09:55.220Z,99907.94
2023-03-04T18:43:19.610Z,99927.72
2023-03-04T18:47:24.977Z,99928.03
2023-03-04T19:41:37.433Z,99985.09
2023-03-04T19:45:20.778Z,99998.53
2023-03-04T19:49:04.722Z,100006.69
2023-03-04T19:52:10.475Z,100008.19
2023-03-04T19:55:38.270Z,100019.87
2023-03-04T20:29:27.173Z,100027.31
2023-03-04T20:33:30.462Z,100015.78
2023-03-04T20:36:53.796Z,100019.91
2023-03-04T20:40:17.032Z,100019.44
2023-03-04T20:55:10.835Z,100014.31
2023-03-04T20:58:56.050Z,100023.16
2023-03-04T21:01:59.940Z,100020.97
2023-03-04T21:05:04.726Z,100022.94
2023-03-04T21:08:07.520Z,100026.72
2023-03-04T21:11:15.604Z,100014.81
2023-03-04T21:14:30.734Z,100022.12
2023-03-04T21:17:53.770Z,100020.09
2023-03-04T21:21:16.596Z,100025.34
2023-03-04T21:24:28.205Z,100025.59
2023-03-04T21:27:51.201Z,100020.13
2023-03-04T21:30:54.671Z,100013.34
2023-03-04T21:34:00.281Z,100014.38
2023-03-04T21:37:25.264Z,100011.75
2023-03-04T21:40:28.339Z,100012.56
2023-03-04T21:43:31.846Z,100017.69
2023-03-04T21:46:35.663Z,100017.13
2023-03-04T21:49:41.499Z,100019.53
2023-03-04T21:52:44.964Z,100020.22
2023-03-04T21:56:07.952Z,100020.34
2023-03-04T21:59:13.753Z,100019.66
2023-03-04T22:02:22.429Z,100025.81
2023-03-04T22:05:28.200Z,100034.28
2023-03-04T22:08:32.513Z,100024.13
2023-03-04T22:11:38.511Z,100039.53
2023-03-04T22:15:21.079Z,100041.81
2023-03-04T22:18:26.917Z,100037.72
2023-03-04T22:21:51.578Z,100035.41
2023-03-04T22:24:55.356Z,100027.19
2023-03-04T22:27:58.425Z,100032.56
2023-03-04T22:31:02.128Z,100032.44
2023-03-04T22:34:13.392Z,100037.37
2023-03-04T22:37:36.407Z,100032.56
2023-03-04T22:40:39.744Z,100036.78
2023-03-04T22:44:12.227Z,100036.91
2023-03-04T22:47:17.635Z,100036.91
2023-03-04T22:50:23.530Z,100033.50
2023-03-04T22:53:46.388Z,100039.00
2023-03-04T22:56:50.831Z,100029.81
2023-03-04T22:59:54.033Z,100036.34
2023-03-04T23:03:18.312Z,100039.66
2023-03-04T23:06:25.559Z,100038.25
2023-03-04T23:09:29.433Z,100044.66
2023-03-04T23:12:52.747Z,100042.38
2023-03-04T23:16:39.453Z,100050.41
2023-03-04T23:19:43.433Z,100022.72
2023-03-04T23:22:49.486Z,100025.56
2023-03-04T23:25:53.955Z,100027.88
2023-03-04T23:28:57.597Z,100025.69
2023-03-04T23:32:20.458Z,100034.38
2023-03-04T23:35:24.282Z,100034.50
2023-03-04T23:38:27.898Z,100044.78
2023-03-04T23:41:32.997Z,100042.84
2023-03-04T23:44:36.829Z,100051.31
2023-03-04T23:47:40.728Z,100055.88
2023-03-04T23:50:50.989Z,100050.16
2023-03-04T23:54:13.124Z,100044.69
2023-03-04T23:57:16.141Z,100047.53
